Atlantis — PCDT — position and weather

sailwx.info

Track history (hours):
 
Tides and Currents Weather Stations Pressure Air Temp Water Temp Dewpoint Dewpoint Depression Visibility Wind Speed Wind Dir Waves Ship Positions

Atlantis (Netherlands)

Ship's website: http://www.tallship-company.com/artemis/gb_atlantis.htm

Last reported at 2016-Aug-31 15:30 UTC. Time now 2016-Sep-01 01:57 UTC.
Position N 38°57' E 001°35'.

Length 40 m; draft 4.5 m.

Type: Sailing vessel. MMSI: 246253000.

Date/timePositionNaut miles runAvg speedWind from/ knotsBaromVisibWave heightAir tempDewpointWater temp
2016-Aug-31 15:30N 38°57' E 001°35'3 2.6
2016-Aug-31 14:16N 38°60' E 001°35'0 0.0
2016-Aug-31 12:22N 38°60' E 001°35'3 4.0
2016-Aug-31 11:33N 39°02' E 001°38'5 5.2
2016-Aug-31 10:32N 39°07' E 001°35'5 4.8
2016-Aug-31 09:33N 39°07' E 001°29'2 0.2
2016-Aug-30 22:10N 39°05' E 001°26'0 0.0
2016-Aug-30 21:04N 39°05' E 001°26'0 0.0
2016-Aug-30 20:16N 39°05' E 001°26'0 0.0
2016-Aug-30 19:28N 39°05' E 001°26'0 0.0
2016-Aug-30 15:04N 39°05' E 001°26'1 1.3
2016-Aug-30 14:33N 39°06' E 001°27'5 4.8
2016-Aug-30 13:33N 39°08' E 001°32'5 5.0
2016-Aug-30 12:33N 39°11' E 001°37'4 4.2
2016-Aug-30 11:33N 39°13' E 001°42'4 4.3
2016-Aug-30 10:33N 39°16' E 001°46'5 5.3
2016-Aug-30 09:33N 39°19' E 001°52'5 5.2
2016-Aug-30 08:33N 39°22' E 001°58'6 6.1
2016-Aug-30 07:33N 39°25' E 002°04'5 4.8
2016-Aug-30 06:33N 39°27' E 002°10'5 5.0
2016-Aug-30 05:33N 39°30' E 002°15'6 0.5
2016-Aug-29 17:25N 39°33' E 002°21'3 2.4
2016-Aug-29 16:21N 39°34' E 002°18'3 0.2
2016-Aug-28 19:13N 39°33' E 002°22'4 3.6
2016-Aug-28 18:08N 39°36' E 002°21'3 4.7
2016-Aug-28 17:33N 39°38' E 002°24'5 4.9
2016-Aug-28 16:26N 39°41' E 002°30'5 4.6
2016-Aug-28 15:27N 39°43' E 002°35'3 1.5
2016-Aug-28 13:33N 39°46' E 002°37'4 4.2
2016-Aug-28 12:33N 39°48' E 002°42'0 0.0
2016-Aug-27 21:22N 39°48' E 002°42'0 0.0
2016-Aug-27 20:31N 39°48' E 002°42'0 0.0
2016-Aug-27 19:31N 39°48' E 002°42'0 0.0
2016-Aug-27 18:31N 39°48' E 002°42'0 0.0
2016-Aug-27 17:19N 39°48' E 002°42'0 0.0
2016-Aug-27 16:31N 39°48' E 002°42'0 0.0
2016-Aug-27 15:31N 39°48' E 002°42'0 0.0
2016-Aug-27 14:25N 39°48' E 002°42'0 0.0
2016-Aug-27 13:31N 39°48' E 002°42'0 0.0
2016-Aug-27 12:31N 39°48' E 002°42'0 0.0
2016-Aug-27 11:31N 39°48' E 002°42'0 0.0
2016-Aug-27 10:31N 39°48' E 002°42'0 0.0
2016-Aug-27 09:22N 39°48' E 002°42'0 0.0
2016-Aug-27 08:31N 39°48' E 002°42'0 0.0
2016-Aug-27 07:31N 39°48' E 002°42'0 0.0
2016-Aug-27 06:25N 39°48' E 002°42'0 0.0
2016-Aug-27 04:31N 39°48' E 002°42'0 0.0
2016-Aug-27 03:31N 39°48' E 002°42'0 0.0
2016-Aug-27 02:31N 39°48' E 002°42'0 0.0
2016-Aug-27 01:31N 39°48' E 002°42'0 0.0
2016-Aug-27 00:28N 39°48' E 002°42'0 0.0
2016-Aug-26 23:31N 39°48' E 002°42'0 0.0
2016-Aug-26 22:31N 39°48' E 002°42'0 0.0
2016-Aug-26 21:28N 39°48' E 002°42'0 0.0
2016-Aug-26 20:31N 39°48' E 002°42'0 0.0
2016-Aug-26 19:31N 39°48' E 002°42'0 0.0
2016-Aug-26 18:31N 39°48' E 002°42'0 0.0
2016-Aug-26 17:31N 39°48' E 002°42'0 0.0
2016-Aug-26 16:31N 39°48' E 002°42'0 0.0
2016-Aug-26 15:31N 39°48' E 002°42'0 0.0
2016-Aug-26 14:31N 39°48' E 002°42'0 0.0
2016-Aug-26 13:31N 39°48' E 002°42'0 0.0
2016-Aug-26 12:31N 39°48' E 002°42'0 0.0
2016-Aug-26 11:28N 39°48' E 002°42'0 0.0
2016-Aug-26 10:34N 39°48' E 002°42'10 2.8
2016-Aug-26 07:07N 39°42' E 002°31'3 5.5
2016-Aug-26 06:33N 39°40' E 002°28'10 0.7
2016-Aug-25 16:28N 39°33' E 002°20'1 0.1
2016-Aug-24 14:17N 39°32' E 002°19'4 4.2
2016-Aug-24 13:28N 39°31' E 002°14'4 4.0
2016-Aug-24 12:30N 39°28' E 002°11'5 5.2
2016-Aug-24 11:31N 39°25' E 002°06'7 5.4
2016-Aug-24 10:19N 39°21' E 001°59'4 5.3
2016-Aug-24 09:28N 39°19' E 001°54'5 5.2
2016-Aug-24 08:34N 39°16' E 001°49'5 5.3
2016-Aug-24 07:33N 39°14' E 001°43'15 4.8
2016-Aug-24 04:27N 39°06' E 001°27'0 0.0
2016-Aug-24 03:33N 39°06' E 001°27'0 0.0
2016-Aug-24 02:33N 39°06' E 001°27'0 0.0
2016-Aug-24 00:27N 39°06' E 001°27'0 0.0
2016-Aug-23 21:33N 39°06' E 001°27'0 0.0
2016-Aug-23 19:03N 39°06' E 001°27'1 0.1
2016-Aug-23 15:06N 39°05' E 001°26'2 2.9
2016-Aug-23 14:33N 39°06' E 001°28'5 5.3
2016-Aug-23 13:33N 39°07' E 001°34'5 4.6
2016-Aug-23 12:33N 39°03' E 001°38'1 0.7
2016-Aug-23 11:33N 39°02' E 001°37'2 1.8
2016-Aug-23 10:33N 39°01' E 001°37'5 5.2
2016-Aug-23 09:32N 38°55' E 001°37'5 5.1
2016-Aug-23 08:33N 38°50' E 001°37'  
Track history (hours):
 
Tides and Currents Weather Stations Pressure Air Temp Water Temp Dewpoint Dewpoint Depression Visibility Wind Speed Wind Dir Waves Ship Positions

Atlantis (Netherlands)

Ship's website: http://www.tallship-company.com/artemis/gb_atlantis.htm

Last reported at 2016-Aug-31 15:30 UTC. Time now 2016-Sep-01 01:57 UTC.
Position N 38°57' E 001°35'.

Length 40 m; draft 4.5 m.

Type: Sailing vessel. MMSI: 246253000.

Date/timePositionNaut miles runAvg speedWind from/ knotsBaromVisibWave heightAir tempDewpointWater temp
2016-Aug-31 15:30N 38°57' E 001°35'3 2.6
2016-Aug-31 14:16N 38°60' E 001°35'0 0.0
2016-Aug-31 12:22N 38°60' E 001°35'3 4.0
2016-Aug-31 11:33N 39°02' E 001°38'5 5.2
2016-Aug-31 10:32N 39°07' E 001°35'5 4.8
2016-Aug-31 09:33N 39°07' E 001°29'2 0.2
2016-Aug-30 22:10N 39°05' E 001°26'0 0.0
2016-Aug-30 21:04N 39°05' E 001°26'0 0.0
2016-Aug-30 20:16N 39°05' E 001°26'0 0.0
2016-Aug-30 19:28N 39°05' E 001°26'0 0.0
2016-Aug-30 15:04N 39°05' E 001°26'1 1.3
2016-Aug-30 14:33N 39°06' E 001°27'5 4.8
2016-Aug-30 13:33N 39°08' E 001°32'5 5.0
2016-Aug-30 12:33N 39°11' E 001°37'4 4.2
2016-Aug-30 11:33N 39°13' E 001°42'4 4.3
2016-Aug-30 10:33N 39°16' E 001°46'5 5.3
2016-Aug-30 09:33N 39°19' E 001°52'5 5.2
2016-Aug-30 08:33N 39°22' E 001°58'6 6.1
2016-Aug-30 07:33N 39°25' E 002°04'5 4.8
2016-Aug-30 06:33N 39°27' E 002°10'5 5.0
2016-Aug-30 05:33N 39°30' E 002°15'6 0.5
2016-Aug-29 17:25N 39°33' E 002°21'3 2.4
2016-Aug-29 16:21N 39°34' E 002°18'3 0.2
2016-Aug-28 19:13N 39°33' E 002°22'4 3.6
2016-Aug-28 18:08N 39°36' E 002°21'3 4.7
2016-Aug-28 17:33N 39°38' E 002°24'5 4.9
2016-Aug-28 16:26N 39°41' E 002°30'5 4.6
2016-Aug-28 15:27N 39°43' E 002°35'3 1.5
2016-Aug-28 13:33N 39°46' E 002°37'4 4.2
2016-Aug-28 12:33N 39°48' E 002°42'0 0.0
2016-Aug-27 21:22N 39°48' E 002°42'0 0.0
2016-Aug-27 20:31N 39°48' E 002°42'0 0.0
2016-Aug-27 19:31N 39°48' E 002°42'0 0.0
2016-Aug-27 18:31N 39°48' E 002°42'0 0.0
2016-Aug-27 17:19N 39°48' E 002°42'0 0.0
2016-Aug-27 16:31N 39°48' E 002°42'0 0.0
2016-Aug-27 15:31N 39°48' E 002°42'0 0.0
2016-Aug-27 14:25N 39°48' E 002°42'0 0.0
2016-Aug-27 13:31N 39°48' E 002°42'0 0.0
2016-Aug-27 12:31N 39°48' E 002°42'0 0.0
2016-Aug-27 11:31N 39°48' E 002°42'0 0.0
2016-Aug-27 10:31N 39°48' E 002°42'0 0.0
2016-Aug-27 09:22N 39°48' E 002°42'0 0.0
2016-Aug-27 08:31N 39°48' E 002°42'0 0.0
2016-Aug-27 07:31N 39°48' E 002°42'0 0.0
2016-Aug-27 06:25N 39°48' E 002°42'0 0.0
2016-Aug-27 04:31N 39°48' E 002°42'0 0.0
2016-Aug-27 03:31N 39°48' E 002°42'0 0.0
2016-Aug-27 02:31N 39°48' E 002°42'0 0.0
2016-Aug-27 01:31N 39°48' E 002°42'0 0.0
2016-Aug-27 00:28N 39°48' E 002°42'0 0.0
2016-Aug-26 23:31N 39°48' E 002°42'0 0.0
2016-Aug-26 22:31N 39°48' E 002°42'0 0.0
2016-Aug-26 21:28N 39°48' E 002°42'0 0.0
2016-Aug-26 20:31N 39°48' E 002°42'0 0.0
2016-Aug-26 19:31N 39°48' E 002°42'0 0.0
2016-Aug-26 18:31N 39°48' E 002°42'0 0.0
2016-Aug-26 17:31N 39°48' E 002°42'0 0.0
2016-Aug-26 16:31N 39°48' E 002°42'0 0.0
2016-Aug-26 15:31N 39°48' E 002°42'0 0.0
2016-Aug-26 14:31N 39°48' E 002°42'0 0.0
2016-Aug-26 13:31N 39°48' E 002°42'0 0.0
2016-Aug-26 12:31N 39°48' E 002°42'0 0.0
2016-Aug-26 11:28N 39°48' E 002°42'0 0.0
2016-Aug-26 10:34N 39°48' E 002°42'10 2.8
2016-Aug-26 07:07N 39°42' E 002°31'3 5.5
2016-Aug-26 06:33N 39°40' E 002°28'10 0.7
2016-Aug-25 16:28N 39°33' E 002°20'1 0.1
2016-Aug-24 14:17N 39°32' E 002°19'4 4.2
2016-Aug-24 13:28N 39°31' E 002°14'4 4.0
2016-Aug-24 12:30N 39°28' E 002°11'5 5.2
2016-Aug-24 11:31N 39°25' E 002°06'7 5.4
2016-Aug-24 10:19N 39°21' E 001°59'4 5.3
2016-Aug-24 09:28N 39°19' E 001°54'5 5.2
2016-Aug-24 08:34N 39°16' E 001°49'5 5.3
2016-Aug-24 07:33N 39°14' E 001°43'15 4.8
2016-Aug-24 04:27N 39°06' E 001°27'0 0.0
2016-Aug-24 03:33N 39°06' E 001°27'0 0.0
2016-Aug-24 02:33N 39°06' E 001°27'0 0.0
2016-Aug-24 00:27N 39°06' E 001°27'0 0.0
2016-Aug-23 21:33N 39°06' E 001°27'0 0.0
2016-Aug-23 19:03N 39°06' E 001°27'1 0.1
2016-Aug-23 15:06N 39°05' E 001°26'2 2.9
2016-Aug-23 14:33N 39°06' E 001°28'5 5.3
2016-Aug-23 13:33N 39°07' E 001°34'5 4.6
2016-Aug-23 12:33N 39°03' E 001°38'1 0.7
2016-Aug-23 11:33N 39°02' E 001°37'2 1.8
2016-Aug-23 10:33N 39°01' E 001°37'5 5.2
2016-Aug-23 09:32N 38°55' E 001°37'5 5.1
2016-Aug-23 08:33N 38°50' E 001°37'  

Dump ship's entire track history